Time;durP1;ratioP1;P1;durP2;ratioP2;P2;SDS_P1;SDS_P2;PMS_P1;PMS_P2;Temp;Humidity;BMP_temperature;BMP_pressure;BME280_temperature;BME280_humidity;BME280_pressure;Samples;Min_cycle;Max_cycle;Signal;HPM_P1;HPM_P2
2022/05/02 00:00:25;;;;;;;7.72;4.50;;;;;;;14.55;57.19;99918.03;5113083;28;20019;-47
2022/05/02 00:02:50;;;;;;;6.85;4.30;;;;;;;14.53;57.27;99914.75;5112950;28;20050;-48
2022/05/02 00:05:16;;;;;;;8.35;4.40;;;;;;;14.57;57.82;99918.66;5112773;28;20466;-47
2022/05/02 00:07:42;;;;;;;6.32;4.28;;;;;;;14.61;56.95;99917.16;5112982;28;20051;-51
2022/05/02 00:10:08;;;;;;;7.13;4.10;;;;;;;14.35;57.66;99918.25;5094590;28;20356;-50
2022/05/02 00:12:33;;;;;;;6.03;4.03;;;;;;;14.35;58.21;99918.25;5112394;28;20028;-49
2022/05/02 00:14:59;;;;;;;6.95;4.22;;;;;;;14.34;57.32;99917.44;5112918;28;20039;-48
2022/05/02 00:17:56;;;;;;;7.15;4.05;;;;;;;14.12;58.10;99917.06;5112806;28;20116;-47
2022/05/02 00:20:10;;;;;;;5.95;4.22;;;;;;;14.13;58.39;99913.34;5112702;28;20031;-49
2022/05/02 00:22:35;;;;;;;9.25;4.20;;;;;;;14.32;57.30;99913.34;5112534;28;20038;-48
2022/05/02 00:25:01;;;;;;;7.03;4.47;;;;;;;13.94;58.43;99912.53;5112302;28;20210;-47
2022/05/02 00:27:26;;;;;;;8.85;4.28;;;;;;;14.16;58.04;99910.22;5112511;28;20011;-47
2022/05/02 00:29:52;;;;;;;6.38;4.20;;;;;;;13.94;58.59;99901.00;5112362;28;20458;-47
2022/05/02 00:32:17;;;;;;;6.35;4.10;;;;;;;14.00;58.14;99908.94;5112710;28;20049;-47
2022/05/02 00:34:43;;;;;;;5.00;3.90;;;;;;;13.87;58.67;99895.72;5112230;28;20386;-48
2022/05/02 00:37:08;;;;;;;5.82;4.13;;;;;;;14.03;58.27;99900.50;5112588;28;20027;-48
2022/05/02 00:39:33;;;;;;;7.43;4.35;;;;;;;13.92;58.63;99897.72;5112465;28;20072;-47
2022/05/02 00:41:59;;;;;;;5.68;4.20;;;;;;;14.26;57.58;99893.66;5112430;28;20030;-48
2022/05/02 00:44:24;;;;;;;5.65;4.32;;;;;;;14.27;57.36;99897.97;5112194;28;20023;-50
2022/05/02 00:46:50;;;;;;;7.38;4.20;;;;;;;14.37;56.97;99884.84;5112257;28;20475;-48
2022/05/02 00:49:16;;;;;;;5.70;4.32;;;;;;;14.10;57.17;99844.22;5111981;28;20510;-49
2022/05/02 00:51:41;;;;;;;7.47;4.57;;;;;;;14.40;57.06;99886.28;5112254;28;20047;-47
2022/05/02 00:54:07;;;;;;;6.32;4.50;;;;;;;14.57;56.29;99886.50;5111666;28;20012;-48
2022/05/02 00:56:33;;;;;;;6.43;4.40;;;;;;;14.71;55.92;99893.31;5111965;28;20028;-48
2022/05/02 00:59:00;;;;;;;5.97;4.60;;;;;;;14.46;56.47;99883.50;5112055;28;20020;-45
2022/05/02 01:01:25;;;;;;;7.47;4.95;;;;;;;14.39;56.81;99896.19;5111585;28;20103;-48
2022/05/02 01:03:51;;;;;;;8.20;4.80;;;;;;;14.61;56.35;99893.84;5111927;28;20055;-49
2022/05/02 01:09:01;;;;;;;7.47;5.22;;;;;;;14.24;57.09;99896.56;5112236;28;20536;-48
2022/05/02 01:11:28;;;;;;;8.32;5.40;;;;;;;13.78;58.54;99889.81;5112008;28;20023;-48
2022/05/02 01:13:53;;;;;;;8.73;5.20;;;;;;;14.07;57.70;99890.16;5111730;28;20038;-47
2022/05/02 01:16:23;;;;;;;8.18;5.07;;;;;;;13.88;58.11;99886.66;5111729;28;20408;-47
2022/05/02 01:18:51;;;;;;;8.43;5.50;;;;;;;13.72;58.25;99871.19;5111712;28;20119;-46
2022/05/02 01:21:22;;;;;;;9.90;5.50;;;;;;;13.60;58.72;99889.81;5111448;28;20038;-48
2022/05/02 01:23:50;;;;;;;8.63;5.38;;;;;;;13.77;58.48;99882.84;5111293;28;20772;-47
2022/05/02 01:26:16;;;;;;;9.48;5.72;;;;;;;13.80;58.24;99879.75;5111587;28;20024;-48
2022/05/02 01:28:47;;;;;;;7.63;5.72;;;;;;;14.08;57.64;99884.56;5111429;28;20019;-49
2022/05/02 01:31:14;;;;;;;8.43;5.68;;;;;;;13.75;58.31;99882.25;5111360;28;20026;-49
2022/05/02 01:33:40;;;;;;;8.20;5.70;;;;;;;13.61;58.98;99870.88;5111299;28;20437;-50
2022/05/02 01:36:06;;;;;;;9.52;5.70;;;;;;;14.05;57.83;99877.00;5111700;28;20054;-51
2022/05/02 01:38:31;;;;;;;11.75;6.10;;;;;;;14.00;57.43;99863.47;5111481;28;20114;-48
2022/05/02 01:40:57;;;;;;;7.28;5.60;;;;;;;14.07;57.61;99872.25;5111309;28;20019;-51
2022/05/02 01:43:22;;;;;;;9.38;5.80;;;;;;;13.71;58.31;99865.03;5111164;28;20022;-51
2022/05/02 01:45:48;;;;;;;9.27;6.43;;;;;;;13.60;58.72;99857.72;5111505;28;20033;-46
2022/05/02 01:48:13;;;;;;;7.07;5.95;;;;;;;13.35;59.81;99863.91;5111324;28;20030;-50
2022/05/02 01:50:39;;;;;;;8.23;6.30;;;;;;;13.58;58.71;99852.59;5111345;28;20019;-48
2022/05/02 01:53:04;;;;;;;7.68;6.32;;;;;;;13.57;59.00;99853.63;5110883;28;20027;-50
2022/05/02 01:55:30;;;;;;;10.32;6.85;;;;;;;13.23;60.24;99850.41;5111043;28;20032;-47
2022/05/02 01:57:55;;;;;;;10.02;6.82;;;;;;;13.35;59.55;99842.53;5111281;28;20059;-47
2022/05/02 02:00:21;;;;;;;11.27;7.68;;;;;;;13.40;59.73;99833.84;5111123;28;20041;-48
2022/05/02 02:02:46;;;;;;;9.55;6.72;;;;;;;13.17;60.33;99837.91;5110998;28;20458;-49
2022/05/02 02:07:56;;;;;;;9.15;6.90;;;;;;;13.48;59.52;99815.66;5111414;28;20031;-47
2022/05/02 02:10:21;;;;;;;9.73;7.15;;;;;;;13.47;59.68;99818.56;5111190;28;20016;-47
2022/05/02 02:12:47;;;;;;;8.93;7.25;;;;;;;13.48;59.17;99804.97;5110983;28;20027;-48
2022/05/02 02:15:14;;;;;;;10.82;7.55;;;;;;;13.77;58.76;99807.97;5115199;28;20019;-47
2022/05/02 02:17:43;;;;;;;10.98;7.13;;;;;;;13.74;58.21;99805.72;5114832;28;20031;-50
2022/05/02 02:20:10;;;;;;;10.55;7.55;;;;;;;13.87;58.08;99802.91;5115047;28;20022;-50
2022/05/02 02:22:36;;;;;;;14.30;8.40;;;;;;;13.98;57.99;99803.22;5115211;28;20081;-47
2022/05/02 02:25:03;;;;;;;10.70;7.65;;;;;;;13.82;58.24;99797.41;5114871;28;20039;-47
2022/05/02 02:27:28;;;;;;;12.63;8.10;;;;;;;13.90;58.08;99796.31;5114801;28;20466;-47
2022/05/02 02:29:54;;;;;;;10.73;7.65;;;;;;;13.88;58.13;99793.84;5114886;28;20068;-48
2022/05/02 02:32:20;;;;;;;13.35;8.15;;;;;;;13.93;58.07;99797.69;5115004;28;20072;-48
2022/05/02 02:34:45;;;;;;;11.98;8.02;;;;;;;13.90;58.04;99807.00;5114545;28;20356;-47
2022/05/02 02:37:11;;;;;;;12.70;8.10;;;;;;;13.91;58.07;99803.28;5115105;28;20087;-48
2022/05/02 02:39:36;;;;;;;10.73;8.05;;;;;;;13.84;58.77;99799.84;5114494;28;20026;-49
2022/05/02 02:42:02;;;;;;;12.50;7.55;;;;;;;13.80;58.84;99796.00;5114719;28;20043;-47
2022/05/02 02:44:27;;;;;;;12.15;7.75;;;;;;;13.86;58.66;99809.31;5114337;28;20028;-48
2022/05/02 02:46:53;;;;;;;12.50;7.65;;;;;;;13.80;58.86;99807.53;5114760;28;20023;-48
2022/05/02 02:49:18;;;;;;;12.25;7.50;;;;;;;13.82;58.69;99810.78;5114315;27;20020;-49
2022/05/02 02:51:44;;;;;;;11.65;7.63;;;;;;;13.75;58.89;99812.72;5114746;28;20030;-48
2022/05/02 02:54:09;;;;;;;10.98;7.72;;;;;;;13.83;58.75;99812.41;5114031;28;20030;-49
2022/05/02 02:56:35;;;;;;;9.43;7.35;;;;;;;13.79;58.69;99805.06;5114200;28;20061;-48
2022/05/02 02:59:00;;;;;;;12.02;7.30;;;;;;;13.65;59.00;99815.91;5114386;28;20015;-48
2022/05/02 03:01:26;;;;;;;8.95;7.40;;;;;;;13.69;59.28;99819.78;5114555;28;20016;-49
2022/05/02 03:03:51;;;;;;;12.52;7.63;;;;;;;13.89;58.57;99816.06;5114143;28;20028;-48
2022/05/02 03:06:17;;;;;;;10.30;7.10;;;;;;;13.82;58.72;99815.31;5114203;28;20104;-48
2022/05/02 03:08:44;;;;;;;8.82;7.47;;;;;;;13.86;58.40;99813.84;5114052;28;20027;-46
2022/05/02 03:11:11;;;;;;;11.05;7.20;;;;;;;13.74;58.62;99808.41;5114257;28;20463;-48
2022/05/02 03:13:36;;;;;;;12.35;6.95;;;;;;;13.87;58.56;99818.13;5113975;28;20019;-51
2022/05/02 03:16:03;;;;;;;13.15;7.25;;;;;;;14.00;58.35;99818.00;5114210;28;20106;-47
2022/05/02 03:18:29;;;;;;;12.75;7.38;;;;;;;13.94;58.50;99823.44;5114065;28;20050;-51
2022/05/02 03:20:54;;;;;;;10.13;7.40;;;;;;;13.64;59.28;99827.63;5114262;28;20448;-47
2022/05/02 03:23:20;;;;;;;12.57;7.13;;;;;;;13.61;59.24;99822.75;5113816;28;20023;-47
2022/05/02 03:25:46;;;;;;;9.57;7.13;;;;;;;13.67;59.40;99827.19;5113329;28;20528;-48
2022/05/02 03:28:12;;;;;;;9.57;6.35;;;;;;;13.63;59.28;99823.34;5113754;28;20028;-48
2022/05/02 03:30:37;;;;;;;11.23;6.80;;;;;;;13.66;59.50;99819.41;5113766;28;20076;-48
2022/05/02 03:33:03;;;;;;;10.07;6.88;;;;;;;13.81;58.80;99824.38;5113687;28;20028;-49
2022/05/02 03:35:29;;;;;;;9.23;7.28;;;;;;;13.68;59.06;99828.81;5113849;28;20457;-49
2022/05/02 03:37:55;;;;;;;9.32;6.78;;;;;;;13.76;59.04;99825.03;5113786;28;20019;-48
2022/05/02 03:40:21;;;;;;;11.30;7.07;;;;;;;13.92;58.66;99818.28;5113418;28;20360;-48
2022/05/02 03:42:46;;;;;;;10.80;7.05;;;;;;;13.87;59.10;99824.28;5113552;28;20038;-48
2022/05/02 03:45:12;;;;;;;14.02;8.10;;;;;;;13.83;58.71;99825.78;5113367;28;20399;-47
2022/05/02 03:47:37;;;;;;;12.30;7.43;;;;;;;13.85;58.89;99825.56;5113503;28;20039;-48
2022/05/02 03:50:04;;;;;;;10.50;7.68;;;;;;;13.96;58.40;99814.13;5113189;28;20028;-49
2022/05/02 03:52:29;;;;;;;9.95;6.97;;;;;;;13.94;58.58;99812.72;5112884;28;20027;-49
2022/05/02 03:54:55;;;;;;;10.48;7.15;;;;;;;13.94;58.98;99815.41;5113162;28;20110;-48
2022/05/02 03:57:20;;;;;;;11.32;6.80;;;;;;;14.14;58.30;99818.63;5113205;28;20029;-47
2022/05/02 03:59:47;;;;;;;12.35;7.68;;;;;;;14.37;57.48;99823.28;5113283;28;20020;-48
2022/05/02 04:02:13;;;;;;;11.63;6.95;;;;;;;14.72;57.23;99814.59;5113034;28;20442;-47
2022/05/02 04:04:38;;;;;;;9.75;7.47;;;;;;;14.93;55.89;99817.81;5113083;28;20030;-48
2022/05/02 04:07:04;;;;;;;10.93;7.07;;;;;;;15.04;56.28;99811.63;5113310;28;20055;-52
2022/05/02 04:09:30;;;;;;;8.30;6.30;;;;;;;15.24;55.94;99804.06;5112895;28;20070;-47
2022/05/02 04:11:56;;;;;;;11.38;6.82;;;;;;;15.59;54.36;99799.75;5113012;28;20388;-50
2022/05/02 04:14:22;;;;;;;8.63;6.55;;;;;;;15.97;53.08;99795.75;5112791;28;20469;-48
2022/05/02 04:16:49;;;;;;;10.70;6.18;;;;;;;16.10;52.64;99800.03;5113013;28;20115;-48
2022/05/02 04:19:16;;;;;;;10.43;6.53;;;;;;;16.42;52.22;99800.38;5112824;28;20043;-47
2022/05/02 04:21:41;;;;;;;11.32;7.15;;;;;;;16.65;51.69;99812.06;5112891;28;20028;-50
2022/05/02 04:24:08;;;;;;;10.40;6.82;;;;;;;17.04;50.46;99807.66;5112894;28;20030;-51
2022/05/02 04:26:34;;;;;;;12.35;7.03;;;;;;;17.20;50.52;99808.69;5112960;28;20081;-51
2022/05/02 04:28:59;;;;;;;10.35;6.57;;;;;;;17.34;49.76;99812.69;5112510;28;20105;-49
2022/05/02 04:31:25;;;;;;;14.93;6.50;;;;;;;17.67;49.25;99805.63;5112581;28;20438;-48
2022/05/02 04:33:50;;;;;;;9.38;6.45;;;;;;;17.55;48.66;99800.34;5112729;28;20042;-47
2022/05/02 04:36:16;;;;;;;9.70;6.65;;;;;;;17.76;48.08;99806.81;5111903;28;20016;-48
2022/05/02 04:38:41;;;;;;;10.07;6.50;;;;;;;17.48;48.90;99817.72;5112451;28;20031;-48
2022/05/02 04:41:07;;;;;;;12.45;6.22;;;;;;;17.45;48.86;99805.56;5112490;28;20122;-47
2022/05/02 04:43:32;;;;;;;10.35;6.03;;;;;;;17.88;48.44;99805.94;5111807;28;20553;-48
2022/05/02 04:45:58;;;;;;;8.40;5.70;;;;;;;18.10;52.68;99812.09;5112093;28;20027;-47
2022/05/02 04:48:24;;;;;;;9.85;5.60;;;;;;;18.64;46.77;99805.94;5104355;28;20018;-47
2022/05/02 04:50:49;;;;;;;8.32;5.70;;;;;;;18.64;47.24;99811.34;5106917;28;20023;-49
2022/05/02 04:53:14;;;;;;;7.05;5.15;;;;;;;19.07;46.10;99804.16;5093366;28;20103;-49
2022/05/02 04:55:40;;;;;;;100.55;63.95;;;;;;;19.68;45.16;99813.75;5111897;28;20019;-48
2022/05/02 04:58:06;;;;;;;52.92;31.27;;;;;;;20.16;43.93;99803.69;5111367;28;20012;-51
2022/05/02 05:00:31;;;;;;;9.10;5.07;;;;;;;20.13;42.14;99801.56;5111697;28;20447;-48
2022/05/02 05:02:57;;;;;;;7.80;5.07;;;;;;;18.82;44.72;99810.16;5111040;28;20073;-48
2022/05/02 05:05:22;;;;;;;7.18;4.90;;;;;;;18.78;45.54;99817.13;5110365;28;20052;-50
2022/05/02 05:07:48;;;;;;;6.47;4.82;;;;;;;19.42;44.69;99813.59;5110718;28;20720;-50
2022/05/02 05:10:13;;;;;;;6.97;5.07;;;;;;;19.60;44.16;99822.34;5110343;28;20419;-49
2022/05/02 05:12:54;;;;;;;10.52;7.70;;;;;;;19.46;43.85;99820.09;5108920;28;20348;-48
2022/05/02 05:18:33;;;;;;;9.18;5.03;;;;;;;19.32;43.60;99830.53;5109315;28;20042;-50
2022/05/02 05:21:17;;;;;;;6.65;4.25;;;;;;;19.45;42.80;99825.75;5109431;28;20019;-51
2022/05/02 05:23:52;;;;;;;7.30;4.60;;;;;;;19.09;43.21;99823.59;5109075;28;20019;-37
2022/05/02 05:26:25;;;;;;;7.40;4.30;;;;;;;18.94;44.37;99827.00;5109314;28;20044;-38
2022/05/02 05:29:13;;;;;;;9.52;5.10;;;;;;;18.70;44.74;99825.69;5109394;28;20030;-38
2022/05/02 05:31:41;;;;;;;8.23;4.35;;;;;;;18.54;44.61;99827.38;5111012;28;20012;-38
2022/05/02 05:34:18;;;;;;;6.75;3.80;;;;;;;18.71;44.71;99822.69;5111014;28;20024;-38
2022/05/02 05:36:51;;;;;;;9.57;4.30;;;;;;;19.18;43.40;99813.16;5110118;28;20019;-38
2022/05/02 05:39:39;;;;;;;8.32;4.15;;;;;;;18.22;44.98;99817.38;5110975;28;20073;-38
2022/05/02 05:42:32;;;;;;;7.30;4.50;;;;;;;17.82;46.25;99813.09;5110407;28;20038;-38
2022/05/02 05:45:10;;;;;;;9.15;5.00;;;;;;;17.73;46.36;99822.66;5092791;28;20488;-38
2022/05/02 05:47:57;;;;;;;14.23;9.32;;;;;;;16.61;49.25;99833.22;5110630;28;20473;-38
2022/05/02 05:50:28;;;;;;;7.45;5.30;;;;;;;16.74;50.37;99840.19;5110106;28;20023;-38
2022/05/02 05:53:06;;;;;;;9.07;6.88;;;;;;;17.08;49.46;99837.56;5110220;28;20055;-39
2022/05/02 05:55:35;;;;;;;36.35;20.92;;;;;;;17.58;49.36;99821.38;5110495;28;20025;-37
2022/05/02 05:58:23;;;;;;;11.55;5.97;;;;;;;18.47;47.00;99824.09;5110544;28;20460;-38
2022/05/02 06:00:54;;;;;;;9.40;5.05;;;;;;;18.67;45.72;99826.19;5110623;28;20015;-37
2022/05/02 06:03:37;;;;;;;7.55;5.13;;;;;;;18.55;45.74;99837.13;5110479;28;20391;-37
2022/05/02 06:06:02;;;;;;;9.23;5.28;;;;;;;17.79;46.59;99824.34;5109967;28;20065;-38
2022/05/02 06:08:29;;;;;;;8.65;5.50;;;;;;;17.58;48.13;99834.81;5109684;28;20475;-39
2022/05/02 06:10:58;;;;;;;7.18;5.15;;;;;;;17.66;47.92;99844.34;5091499;28;20493;-39
2022/05/02 06:13:27;;;;;;;7.30;5.47;;;;;;;17.35;48.64;99841.22;5109633;28;20015;-38
2022/05/02 06:18:42;;;;;;;17.55;6.30;;;;;;;16.98;49.94;99840.88;5109960;28;19918;-38
2022/05/02 06:21:08;;;;;;;6.55;5.25;;;;;;;15.96;52.11;99845.91;5109713;28;20072;-39
2022/05/02 06:23:38;;;;;;;10.82;5.80;;;;;;;15.51;54.75;99838.47;5109201;28;20028;-39
2022/05/02 06:26:05;;;;;;;10.32;5.00;;;;;;;15.87;53.77;99841.16;5091326;28;20336;-39
2022/05/02 06:28:38;;;;;;;7.47;5.43;;;;;;;16.53;52.50;99841.69;5091222;28;20467;-39
2022/05/02 06:31:07;;;;;;;11.00;5.88;;;;;;;16.99;51.12;99837.13;5109147;28;20023;-38
2022/05/02 06:33:33;;;;;;;7.73;4.53;;;;;;;17.03;51.26;99830.22;5109214;28;20032;-38
2022/05/02 06:36:22;;;;;;;8.82;4.80;;;;;;;16.65;52.02;99830.88;5109495;28;20043;-38
2022/05/02 06:39:03;;;;;;;48.03;31.88;;;;;;;16.73;52.32;99825.91;5109189;28;20036;-38
2022/05/02 06:41:44;;;;;;;8.80;5.30;;;;;;;16.96;51.62;99827.69;5108936;28;20419;-38
2022/05/02 06:44:15;;;;;;;5.90;4.68;;;;;;;17.47;50.41;99827.66;5109450;28;20183;-38
2022/05/02 06:47:09;;;;;;;5.70;4.10;;;;;;;17.74;50.11;99819.72;5109145;28;20036;-36
2022/05/02 06:49:38;;;;;;;6.57;4.18;;;;;;;17.49;49.80;99820.16;5061598;28;20044;-37
2022/05/02 06:52:10;;;;;;;6.97;4.13;;;;;;;17.34;49.15;99810.00;5109005;28;20024;-38
2022/05/02 06:55:26;;;;;;;5.28;3.63;;;;;;;17.11;50.49;99805.59;5109921;28;20055;-39
2022/05/02 06:58:07;;;;;;;5.95;3.72;;;;;;;16.54;49.31;99814.53;5007244;28;20040;-38
2022/05/02 07:00:43;;;;;;;6.40;3.90;;;;;;;16.47;49.68;99808.53;5092087;28;20529;-38
2022/05/02 07:03:25;;;;;;;7.13;3.60;;;;;;;16.72;49.03;99815.41;5108112;28;20031;-38
2022/05/02 07:06:18;;;;;;;6.38;4.05;;;;;;;17.46;48.79;99809.06;5113536;28;20067;-38
2022/05/02 07:09:04;;;;;;;6.90;4.05;;;;;;;17.23;48.79;99812.75;5113401;28;20043;-38
2022/05/02 07:11:47;;;;;;;6.43;4.07;;;;;;;17.09;49.24;99814.97;5113499;28;20028;-38
2022/05/02 07:14:41;;;;;;;6.32;4.00;;;;;;;17.63;47.66;99809.03;5113648;28;20062;-38
2022/05/02 07:17:23;;;;;;;6.38;3.88;;;;;;;18.05;47.85;99798.59;5095464;28;20046;-38
2022/05/02 07:20:02;;;;;;;5.55;3.90;;;;;;;18.56;46.03;99809.09;5113235;28;20024;-38
2022/05/02 07:22:34;;;;;;;5.57;3.83;;;;;;;18.93;45.00;99806.50;5113422;28;20096;-38
2022/05/02 07:25:10;;;;;;;8.45;3.70;;;;;;;19.17;44.13;99808.81;5112921;28;20046;-38
2022/05/02 07:27:57;;;;;;;5.65;3.63;;;;;;;18.63;43.72;99811.59;5113124;28;20043;-38
2022/05/02 07:30:24;;;;;;;4.57;3.38;;;;;;;17.81;44.57;99813.34;5113120;28;20020;-38
2022/05/02 07:32:53;;;;;;;6.00;3.50;;;;;;;17.82;45.39;99799.63;5113241;28;20028;-38
2022/05/02 07:35:19;;;;;;;;;;;;;;;17.95;45.63;99807.38;5113544;28;20120;-38
2022/05/02 07:37:47;;;;;;;4.38;3.20;;;;;;;18.22;44.27;99803.91;5113070;28;19947;-38
2022/05/02 07:40:14;;;;;;;5.05;3.20;;;;;;;18.41;44.45;99790.06;5112220;28;20102;-38
2022/05/02 07:42:42;;;;;;;6.72;3.80;;;;;;;18.04;45.04;99788.06;5112692;28;20023;-37
2022/05/02 07:45:10;;;;;;;4.78;3.30;;;;;;;18.64;45.00;99783.56;5112695;28;20051;-38
2022/05/02 07:47:37;;;;;;;8.07;3.90;;;;;;;18.97;44.23;99779.84;5112513;28;20395;-38
2022/05/02 07:50:05;;;;;;;5.07;3.38;;;;;;;19.35;43.21;99783.34;5112435;28;20031;-38
2022/05/02 07:52:35;;;;;;;9.65;3.90;;;;;;;19.05;44.48;99771.25;5106811;28;20040;-38
2022/05/02 07:55:02;;;;;;;5.50;3.35;;;;;;;18.77;45.46;99761.56;5092170;28;20027;-38
2022/05/02 07:57:32;;;;;;;6.28;3.75;;;;;;;18.86;44.52;99749.28;5092195;28;20020;-38
2022/05/02 07:59:58;;;;;;;;;;;;;;;19.08;44.26;99751.88;5092688;28;20024;-38
2022/05/02 08:02:24;;;;;;;5.53;3.72;;;;;;;19.16;44.06;99747.06;5101509;28;19912;-37
2022/05/02 08:04:52;;;;;;;10.32;4.38;;;;;;;19.19;44.69;99762.72;5112401;28;20103;-37
2022/05/02 08:07:32;;;;;;;6.55;4.07;;;;;;;18.54;45.67;99731.22;5112467;28;20036;-38
2022/05/02 08:10:10;;;;;;;5.93;3.97;;;;;;;18.38;46.53;99723.25;5111961;28;20039;-38
2022/05/02 08:12:40;;;;;;;7.05;5.03;;;;;;;19.19;44.64;99714.16;5111409;28;20375;-38
2022/05/02 08:15:43;;;;;;;8.35;3.28;;;;;;;19.14;42.41;99707.66;5111923;28;20027;-38
2022/05/02 08:18:08;;;;;;;5.45;3.60;;;;;;;19.56;42.20;99710.59;5111631;28;20039;-38
2022/05/02 08:20:45;;;;;;;6.65;3.20;;;;;;;19.37;42.07;99705.63;5108314;28;20016;-39
2022/05/02 08:27:16;;;;;;;7.65;3.22;;;;;;;20.25;40.01;99709.44;5111447;28;20511;-39
2022/05/02 08:30:07;;;;;;;5.18;2.90;;;;;;;20.22;39.45;99705.41;5109895;28;20020;-39
2022/05/02 08:32:37;;;;;;;5.72;4.45;;;;;;;21.21;37.78;99696.16;5111821;28;20024;-38
2022/05/02 08:35:08;;;;;;;7.40;3.00;;;;;;;20.57;36.38;99725.41;5111688;28;20103;-39
2022/05/02 08:37:46;;;;;;;3.42;2.72;;;;;;;20.90;36.26;99712.44;5109199;28;20078;-38
2022/05/02 08:40:38;;;;;;;5.30;2.70;;;;;;;20.61;36.26;99731.13;5105012;28;20035;-38
2022/05/02 08:43:46;;;;;;;4.35;2.65;;;;;;;20.25;37.83;99707.56;5111996;28;20042;-38
2022/05/02 08:46:30;;;;;;;7.53;3.00;;;;;;;19.92;38.57;99701.56;5055326;28;20110;-38
2022/05/02 08:49:32;;;;;;;4.78;3.00;;;;;;;19.16;39.40;99699.31;5110967;28;20063;-38
2022/05/02 08:52:24;;;;;;;4.55;3.00;;;;;;;19.09;40.70;99706.81;5108553;28;20031;-38
2022/05/02 08:55:33;;;;;;;4.28;3.08;;;;;;;19.16;40.70;99703.91;5110098;28;20027;-38
2022/05/02 08:58:16;;;;;;;6.20;3.17;;;;;;;19.06;40.09;99704.66;5110041;28;20012;-39
2022/05/02 09:00:54;;;;;;;7.70;3.38;;;;;;;19.75;39.99;99708.25;5108848;28;20031;-38
2022/05/02 09:03:31;;;;;;;4.85;3.00;;;;;;;20.01;39.19;99690.22;5111417;28;20054;-38
2022/05/02 09:06:19;;;;;;;6.25;3.15;;;;;;;21.09;37.62;99691.88;5110852;28;20083;-38
2022/05/02 09:09:06;;;;;;;4.43;3.00;;;;;;;20.73;37.98;99685.69;5110091;28;20106;-49
2022/05/02 09:11:39;;;;;;;9.70;6.18;;;;;;;20.98;36.82;99694.84;5109142;28;20111;-51
2022/05/02 09:14:36;;;;;;;3.70;3.30;;;;;;;21.15;36.78;99687.25;5107883;28;20027;-48
2022/05/02 09:17:20;;;;;;;7.50;3.30;;;;;;;21.53;37.10;99690.38;5110117;28;20447;-46
2022/05/02 09:20:06;;;;;;;8.95;3.20;;;;;;;21.01;37.93;99691.63;5107857;28;20021;-50
2022/05/02 09:22:53;;;;;;;4.63;3.47;;;;;;;21.16;37.10;99678.03;5108079;28;20517;-48
2022/05/02 09:26:00;;;;;;;5.47;3.10;;;;;;;21.31;36.43;99679.09;5109292;28;20446;-52
2022/05/02 09:28:36;;;;;;;4.65;2.80;;;;;;;20.94;36.51;99686.47;5108010;28;20092;-48
2022/05/02 09:31:07;;;;;;;5.68;3.00;;;;;;;21.03;36.11;99662.41;5107947;28;20106;-48
2022/05/02 09:33:44;;;;;;;4.18;2.92;;;;;;;21.63;35.88;99662.47;5109136;28;20410;-48
2022/05/02 09:36:26;;;;;;;6.45;2.80;;;;;;;21.96;35.43;99677.16;5108727;28;20423;-52
2022/05/02 09:39:30;;;;;;;4.80;3.17;;;;;;;22.26;35.27;99680.81;5109097;28;20030;-49
2022/05/02 09:42:26;;;;;;;4.72;3.20;;;;;;;21.70;35.85;99673.78;5110017;28;20027;-50
2022/05/02 09:51:29;;;;;;;5.93;2.70;;;;;;;21.19;36.06;99663.97;5110597;28;20037;-50
2022/05/02 09:54:09;;;;;;;3.75;2.40;;;;;;;20.81;36.12;99660.81;5110166;28;20019;-51
2022/05/02 09:56:45;;;;;;;14.70;10.70;;;;;;;20.30;36.95;99655.44;5110458;28;20118;-48
2022/05/02 09:59:16;;;;;;;4.78;2.40;;;;;;;21.00;36.25;99642.13;5110364;28;20043;-38
2022/05/02 10:02:05;;;;;;;3.50;2.45;;;;;;;21.12;36.06;99635.59;5110166;28;20038;-38
2022/05/02 10:05:05;;;;;;;4.05;2.45;;;;;;;20.99;36.64;99631.56;5097489;28;20402;-38
2022/05/02 10:07:37;;;;;;;6.13;2.30;;;;;;;20.85;35.90;99632.16;5110933;28;20044;-37
2022/05/02 10:10:13;;;;;;;3.75;2.35;;;;;;;21.00;35.09;99633.19;5111138;28;20031;-38
2022/05/02 10:12:47;;;;;;;4.53;2.00;;;;;;;21.14;34.65;99628.00;5111288;28;20375;-37
2022/05/02 10:15:54;;;;;;;5.40;2.10;;;;;;;21.63;33.48;99613.75;5101150;28;20073;-38
2022/05/02 10:18:32;;;;;;;2.70;2.10;;;;;;;22.28;31.89;99604.63;5083641;28;20115;-38
2022/05/02 10:21:13;;;;;;;2.42;2.00;;;;;;;21.45;33.70;99609.75;5094347;28;20020;-38
2022/05/02 10:23:44;;;;;;;3.38;2.30;;;;;;;22.05;34.16;99602.34;5090511;28;20387;-37
2022/05/02 10:26:35;;;;;;;3.03;2.08;;;;;;;21.11;34.90;99599.59;5108812;28;20088;-38
2022/05/02 10:29:18;;;;;;;;;;;;;;;21.04;34.42;99597.19;5111443;28;20482;-38
2022/05/02 10:31:51;;;;;;;3.72;3.00;;;;;;;21.92;33.44;99583.22;5110915;28;19915;-36
2022/05/02 10:34:21;;;;;;;4.15;2.20;;;;;;;21.86;33.32;99575.13;5111392;28;20028;-38
2022/05/02 10:36:50;;;;;;;2.75;2.35;;;;;;;21.34;33.35;99589.22;5114608;28;20563;-38
2022/05/02 10:39:44;;;;;;;3.20;2.30;;;;;;;20.69;34.77;99579.19;5113627;28;20027;-38
2022/05/02 10:42:13;;;;;;;2.55;2.30;;;;;;;21.19;33.28;99576.56;5112226;28;20506;-38
2022/05/02 10:45:10;;;;;;;2.72;2.20;;;;;;;20.73;34.07;99587.56;5112459;28;20077;-38
2022/05/02 10:47:51;;;;;;;3.90;2.65;;;;;;;20.86;34.35;99568.06;5111813;28;20024;-38
2022/05/02 10:50:34;;;;;;;5.53;2.55;;;;;;;21.36;34.31;99555.41;5112369;28;20023;-38
2022/05/02 10:53:14;;;;;;;5.60;2.38;;;;;;;22.16;32.46;99556.19;5112877;28;20419;-38
2022/05/02 10:56:19;;;;;;;3.33;2.35;;;;;;;21.00;33.62;99560.16;5113621;28;20505;-38
2022/05/02 10:58:45;;;;;;;3.28;2.30;;;;;;;20.53;34.10;99547.84;5076027;28;20528;-38
2022/05/02 11:01:29;;;;;;;3.88;2.50;;;;;;;21.01;34.38;99559.06;5114011;28;20027;-38
2022/05/02 11:04:28;;;;;;;3.67;2.25;;;;;;;21.76;32.87;99556.25;5093116;28;20134;-38
2022/05/02 11:07:26;;;;;;;3.85;2.47;;;;;;;21.87;31.99;99562.38;5093637;28;20051;-38
2022/05/02 11:10:07;;;;;;;69.13;48.92;;;;;;;22.16;33.20;99559.72;5093446;28;20028;-38
2022/05/02 11:12:39;;;;;;;6.07;2.50;;;;;;;21.43;33.61;99557.78;5094044;28;20102;-38
2022/05/02 11:15:07;;;;;;;3.17;2.28;;;;;;;21.51;33.17;99551.78;5093263;28;20617;-38
2022/05/02 11:17:48;;;;;;;3.70;2.50;;;;;;;21.89;32.90;99554.78;5093272;28;20031;-38
2022/05/02 11:20:41;;;;;;;4.05;2.47;;;;;;;21.73;33.34;99543.25;5093337;28;20034;-37
2022/05/02 11:23:30;;;;;;;3.03;2.58;;;;;;;21.15;34.32;99561.97;5092782;28;20056;-37
2022/05/02 11:26:17;;;;;;;4.70;2.53;;;;;;;21.45;33.63;99564.56;5075076;28;20031;-37
2022/05/02 11:29:10;;;;;;;2.97;2.30;;;;;;;21.57;33.39;99556.09;5093082;28;20115;-37
2022/05/02 11:31:54;;;;;;;3.25;2.60;;;;;;;21.20;34.13;99557.34;5092986;28;20510;-37
2022/05/02 11:34:25;;;;;;;3.75;2.53;;;;;;;20.51;35.35;99561.63;5092997;28;20020;-38
2022/05/02 11:36:53;;;;;;;3.50;2.75;;;;;;;20.48;36.21;99565.66;5093034;28;20112;-38
2022/05/02 11:39:45;;;;;;;3.78;2.28;;;;;;;20.10;35.32;99559.81;5098438;28;20019;-38
2022/05/02 11:42:15;;;;;;;3.92;2.50;;;;;;;20.39;35.14;99553.81;5101087;28;20092;-38
2022/05/02 11:44:49;;;;;;;3.53;2.47;;;;;;;19.92;35.36;99561.13;5113255;28;20028;-39
2022/05/02 11:47:41;;;;;;;5.35;2.78;;;;;;;20.23;35.58;99563.81;5113460;28;20145;-38
2022/05/02 11:50:09;;;;;;;5.07;3.03;;;;;;;19.96;35.35;99564.09;5113238;28;20035;-38
2022/05/02 11:52:37;;;;;;;5.82;2.83;;;;;;;20.92;34.34;99566.94;5112573;28;20027;-38
2022/05/02 11:55:07;;;;;;;4.78;3.10;;;;;;;20.81;34.62;99568.06;5112413;28;20023;-38
2022/05/02 11:57:38;;;;;;;3.47;2.78;;;;;;;20.54;35.26;99566.47;5112828;28;20475;-38
2022/05/02 12:00:11;;;;;;;5.00;2.85;;;;;;;20.19;36.70;99570.06;5112661;28;20047;-38
2022/05/02 12:02:37;;;;;;;4.13;2.60;;;;;;;20.11;36.65;99568.72;5112485;28;20030;-38
2022/05/02 12:05:26;;;;;;;3.80;2.85;;;;;;;20.24;36.34;99570.06;5112529;28;20053;-38
2022/05/02 12:08:00;;;;;;;3.42;3.00;;;;;;;19.94;36.17;99557.38;5061830;28;20126;-38
2022/05/02 12:10:40;;;;;;;3.95;2.90;;;;;;;20.24;36.10;99562.75;5112467;28;20024;-38
2022/05/02 12:13:12;;;;;;;4.88;2.95;;;;;;;20.86;35.62;99557.22;5112460;28;20104;-38
2022/05/02 12:16:13;;;;;;;5.70;2.90;;;;;;;20.54;35.60;99550.25;5112326;28;20028;-38
2022/05/02 12:18:44;;;;;;;5.20;3.10;;;;;;;20.55;35.05;99549.19;5009796;28;20083;-38
2022/05/02 12:21:20;;;;;;;3.42;3.10;;;;;;;20.02;36.35;99551.41;5094213;28;20039;-38